createdAt,value
2019-05-21T00:00:52.810Z,99405.48
2019-05-21T00:03:20.068Z,99411.81
2019-05-21T00:05:47.345Z,99404.42
2019-05-21T00:08:14.761Z,99402.17
2019-05-21T00:10:42.067Z,99399.81
2019-05-21T00:13:09.808Z,99402.27
2019-05-21T00:15:37.240Z,99392.30
2019-05-21T00:18:04.737Z,99391.04
2019-05-21T00:20:32.165Z,99379.27
2019-05-21T00:22:59.441Z,99383.14
2019-05-21T00:25:26.587Z,99381.77
2019-05-21T00:28:15.858Z,99377.16
2019-05-21T00:31:38.813Z,99379.68
2019-05-21T00:35:01.649Z,99379.01
2019-05-21T00:38:24.645Z,99381.20
2019-05-21T00:41:47.683Z,99385.58
2019-05-21T00:44:15.151Z,99383.95
2019-05-21T00:46:45.108Z,99380.16
2019-05-21T00:49:12.687Z,99383.14
2019-05-21T00:51:40.158Z,99379.86
2019-05-21T00:54:07.431Z,99377.15
2019-05-21T00:56:34.582Z,99374.10
2019-05-21T00:59:01.862Z,99377.48
2019-05-21T01:01:29.032Z,99374.97
2019-05-21T01:03:56.282Z,99379.09
2019-05-21T01:06:23.688Z,99370.80
2019-05-21T01:08:50.841Z,99365.86
2019-05-21T01:11:18.076Z,99364.52
2019-05-21T01:13:45.353Z,99364.48
2019-05-21T01:16:12.739Z,99365.38
2019-05-21T01:18:40.054Z,99364.78
2019-05-21T01:21:07.580Z,99364.30
2019-05-21T01:23:35.259Z,99362.03
2019-05-21T01:26:02.956Z,99368.13
2019-05-21T01:28:30.220Z,99360.51
2019-05-21T01:30:57.390Z,99361.80
2019-05-21T01:33:29.571Z,99363.44
2019-05-21T01:35:56.815Z,99357.95
2019-05-21T01:38:23.963Z,99358.80
2019-05-21T01:40:51.154Z,99361.59
2019-05-21T01:43:18.408Z,99354.41
2019-05-21T01:45:45.878Z,99356.05
2019-05-21T01:48:13.020Z,99348.09
2019-05-21T01:50:40.307Z,99350.63
2019-05-21T01:53:07.703Z,99349.81
2019-05-21T01:55:34.915Z,99349.81
2019-05-21T01:58:02.307Z,99350.63
2019-05-21T02:00:29.802Z,99349.81
2019-05-21T02:02:56.950Z,99341.78
2019-05-21T02:05:32.650Z,99336.92
2019-05-21T02:07:53.572Z,99339.63
2019-05-21T02:10:20.938Z,99343.53
2019-05-21T02:12:48.199Z,99338.85
2019-05-21T02:15:15.755Z,99337.17
2019-05-21T02:17:43.132Z,99340.16
2019-05-21T02:20:10.687Z,99343.83
2019-05-21T02:22:37.953Z,99341.30
2019-05-21T02:25:06.903Z,99339.97
2019-05-21T02:27:34.171Z,99342.75
2019-05-21T02:30:01.776Z,99330.37
2019-05-21T02:32:29.162Z,99330.13
2019-05-21T02:34:56.552Z,99332.80
2019-05-21T02:37:23.726Z,99327.94
2019-05-21T02:39:51.136Z,99334.24
2019-05-21T02:42:18.314Z,99334.20
2019-05-21T02:44:45.583Z,99328.48
2019-05-21T02:47:13.039Z,99330.16
2019-05-21T02:49:40.300Z,99331.80
2019-05-21T02:52:07.641Z,99335.73
2019-05-21T02:54:40.724Z,99340.34
2019-05-21T02:57:04.174Z,99327.11
2019-05-21T02:59:31.583Z,99326.89
2019-05-21T03:02:04.892Z,99331.53
2019-05-21T03:04:32.410Z,99329.41
2019-05-21T03:07:18.151Z,99333.20
2019-05-21T03:09:46.939Z,99322.51
2019-05-21T03:12:14.915Z,99315.64
2019-05-21T03:14:42.409Z,99323.70
2019-05-21T03:17:09.771Z,99322.55
2019-05-21T03:19:36.928Z,99334.32
2019-05-21T03:22:04.387Z,99334.36
2019-05-21T03:24:31.815Z,99329.13
2019-05-21T03:26:59.301Z,99325.33
2019-05-21T03:29:26.527Z,99328.93
2019-05-21T03:31:53.682Z,99340.16
2019-05-21T03:34:21.176Z,99343.26
2019-05-21T03:36:48.414Z,99340.19
2019-05-21T03:39:19.274Z,99328.11
2019-05-21T03:41:45.074Z,99334.12
2019-05-21T03:44:12.467Z,99333.91
2019-05-21T03:46:40.264Z,99336.66
2019-05-21T03:49:07.717Z,99331.72
2019-05-21T03:51:35.398Z,99321.28
2019-05-21T03:54:02.880Z,99330.08
2019-05-21T03:56:33.078Z,99326.84
2019-05-21T03:59:00.229Z,99337.20
2019-05-21T04:01:32.333Z,99324.64
2019-05-21T04:03:59.991Z,99321.08
2019-05-21T04:06:28.915Z,99325.00
2019-05-21T04:08:56.492Z,99317.29
2019-05-21T04:11:23.688Z,99321.67
2019-05-21T04:13:50.966Z,99318.95
2019-05-21T04:16:37.895Z,99322.81
2019-05-21T04:19:09.387Z,99329.36
2019-05-21T04:21:36.563Z,99331.05
2019-05-21T04:24:08.438Z,99330.23
2019-05-21T04:26:33.536Z,99340.08
2019-05-21T04:29:00.730Z,99338.45
2019-05-21T04:31:28.093Z,99341.22
2019-05-21T04:33:55.543Z,99340.98
2019-05-21T04:36:23.020Z,99356.05
2019-05-21T04:38:50.303Z,99354.14
2019-05-21T04:41:17.461Z,99347.80
2019-05-21T04:43:44.728Z,99343.45
2019-05-21T04:46:12.151Z,99342.10
2019-05-21T04:48:39.420Z,99335.50
2019-05-21T04:51:06.804Z,99336.88
2019-05-21T04:53:34.162Z,99335.53
2019-05-21T04:56:01.324Z,99324.59
2019-05-21T04:58:28.486Z,99325.42
2019-05-21T05:00:56.038Z,99330.88
2019-05-21T05:03:25.807Z,99328.69
2019-05-21T05:05:56.295Z,99336.64
2019-05-21T05:08:23.455Z,99336.93
2019-05-21T05:10:50.768Z,99340.23
2019-05-21T05:13:18.167Z,99344.32
2019-05-21T05:15:45.659Z,99337.48
2019-05-21T05:18:13.501Z,99346.55
2019-05-21T05:20:41.190Z,99349.29
2019-05-21T05:23:08.362Z,99356.42
2019-05-21T05:25:35.741Z,99358.34
2019-05-21T05:28:03.206Z,99363.25
2019-05-21T05:30:30.520Z,99356.17
2019-05-21T05:32:57.695Z,99353.19
2019-05-21T05:35:25.100Z,99349.05
2019-05-21T05:37:52.682Z,99356.73
2019-05-21T05:40:20.270Z,99359.19
2019-05-21T05:42:47.563Z,99358.66
2019-05-21T05:45:15.641Z,99357.84
2019-05-21T05:47:42.803Z,99365.47
2019-05-21T05:50:13.588Z,99361.09
2019-05-21T05:52:40.820Z,99364.92
2019-05-21T05:55:08.399Z,99376.70
2019-05-21T05:57:35.771Z,99380.29
2019-05-21T06:00:06.127Z,99379.69
2019-05-21T06:02:33.455Z,99387.39
2019-05-21T06:05:00.814Z,99383.04
2019-05-21T06:07:30.928Z,99389.33
2019-05-21T06:09:58.253Z,99391.49
2019-05-21T06:12:25.573Z,99398.36
2019-05-21T06:14:52.906Z,99391.75
2019-05-21T06:17:20.838Z,99414.02
2019-05-21T06:19:48.468Z,99410.98
2019-05-21T06:22:20.263Z,99413.47
2019-05-21T06:24:47.654Z,99417.27
2019-05-21T06:27:14.909Z,99426.65
2019-05-21T06:29:42.464Z,99428.31
2019-05-21T06:32:09.871Z,99414.78
2019-05-21T06:34:38.757Z,99413.15
2019-05-21T06:37:08.130Z,99419.47
2019-05-21T06:39:35.918Z,99422.27
2019-05-21T06:42:03.392Z,99416.74
2019-05-21T06:44:31.124Z,99430.69
2019-05-21T06:46:58.486Z,99428.81
2019-05-21T06:49:25.884Z,99434.02
2019-05-21T06:51:53.607Z,99439.28
2019-05-21T06:54:21.044Z,99443.93
2019-05-21T06:56:49.605Z,99454.05
2019-05-21T06:59:21.074Z,99456.80
2019-05-21T07:01:48.364Z,99457.30
2019-05-21T07:04:15.750Z,99455.69
2019-05-21T07:06:46.724Z,99463.34
2019-05-21T07:09:15.575Z,99469.67
2019-05-21T07:11:43.753Z,99467.71
2019-05-21T07:14:11.200Z,99471.84
2019-05-21T07:16:38.566Z,99471.78
2019-05-21T07:19:05.923Z,99469.83
2019-05-21T07:21:33.284Z,99469.30
2019-05-21T07:24:03.223Z,99482.95
2019-05-21T07:26:31.796Z,99484.34
2019-05-21T07:29:00.162Z,99487.61
2019-05-21T07:31:27.726Z,99484.55
2019-05-21T07:33:55.848Z,99487.27
2019-05-21T07:36:26.217Z,99485.46
2019-05-21T07:38:55.522Z,99493.42
2019-05-21T07:41:25.219Z,99496.33
2019-05-21T07:43:53.732Z,99498.44
2019-05-21T07:46:21.372Z,99498.66
2019-05-21T07:48:49.835Z,99518.08
2019-05-21T07:51:17.976Z,99517.04
2019-05-21T07:53:48.339Z,99519.98
2019-05-21T07:56:17.792Z,99515.02
2019-05-21T07:58:46.597Z,99520.70
2019-05-21T08:01:17.837Z,99529.71
2019-05-21T08:03:47.863Z,99536.97
2019-05-21T08:06:15.345Z,99533.06
2019-05-21T08:08:42.798Z,99541.24
2019-05-21T08:11:10.234Z,99533.97
2019-05-21T08:13:43.087Z,99550.16
2019-05-21T08:16:10.536Z,99542.66
2019-05-21T08:18:38.241Z,99544.03
2019-05-21T08:21:08.933Z,99549.27
2019-05-21T08:23:38.614Z,99542.78
2019-05-21T08:26:06.172Z,99549.78
2019-05-21T08:28:33.573Z,99536.24
2019-05-21T08:31:02.365Z,99548.29
2019-05-21T08:33:29.861Z,99557.99
2019-05-21T08:35:59.679Z,99553.00
2019-05-21T08:38:29.937Z,99558.86
2019-05-21T08:40:57.478Z,99558.86
2019-05-21T08:43:32.003Z,99569.20
2019-05-21T08:45:59.459Z,99560.28
2019-05-21T08:48:26.768Z,99561.06
2019-05-21T08:50:58.432Z,99563.44
2019-05-21T08:53:25.994Z,99565.02
2019-05-21T08:55:53.378Z,99567.78
2019-05-21T08:58:20.842Z,99584.88
2019-05-21T09:00:52.476Z,99582.81
2019-05-21T09:03:19.852Z,99584.15
2019-05-21T09:05:47.255Z,99594.48
2019-05-21T09:08:14.542Z,99590.69
2019-05-21T09:10:42.066Z,99596.94
2019-05-21T09:13:09.535Z,99585.36
2019-05-21T09:15:36.737Z,99599.05
2019-05-21T09:18:04.217Z,99600.51
2019-05-21T09:20:31.628Z,99601.70
2019-05-21T09:22:59.016Z,99603.38
2019-05-21T09:25:29.204Z,99606.58
2019-05-21T09:27:56.702Z,99609.95
2019-05-21T09:30:24.176Z,99622.00
2019-05-21T09:32:51.571Z,99621.14
2019-05-21T09:35:19.129Z,99628.89
2019-05-21T09:37:46.395Z,99626.91
2019-05-21T09:40:14.914Z,99629.47
2019-05-21T09:42:45.273Z,99634.86
2019-05-21T09:45:13.043Z,99635.59
2019-05-21T09:47:40.427Z,99637.28
2019-05-21T09:50:10.034Z,99639.67
2019-05-21T09:52:37.521Z,99652.70
2019-05-21T09:55:05.400Z,99650.76
2019-05-21T09:57:38.832Z,99644.53
2019-05-21T10:00:19.981Z,99658.27
2019-05-21T10:02:47.337Z,99656.48
2019-05-21T10:05:15.554Z,99659.55
2019-05-21T10:07:42.851Z,99660.47
2019-05-21T10:10:10.616Z,99659.75
2019-05-21T10:12:37.903Z,99663.78
2019-05-21T10:15:07.376Z,99672.16
2019-05-21T10:17:34.820Z,99674.97
2019-05-21T10:20:02.997Z,99678.91
2019-05-21T10:22:30.349Z,99675.06
2019-05-21T10:24:57.749Z,99679.45
2019-05-21T10:27:25.138Z,99685.06
2019-05-21T10:29:52.445Z,99686.44
2019-05-21T10:32:19.821Z,99681.09
2019-05-21T10:34:47.092Z,99694.64
2019-05-21T10:37:14.468Z,99691.12
2019-05-21T10:39:41.961Z,99693.97
2019-05-21T10:42:09.231Z,99691.73
2019-05-21T10:44:36.732Z,99688.77
2019-05-21T10:47:05.922Z,99698.30
2019-05-21T10:49:33.141Z,99700.66
2019-05-21T10:52:00.322Z,99699.63
2019-05-21T10:54:27.683Z,99706.69
2019-05-21T10:56:54.954Z,99716.44
2019-05-21T10:59:22.507Z,99724.78
2019-05-21T11:02:02.964Z,99726.93
2019-05-21T11:04:37.729Z,99725.52
2019-05-21T11:07:05.462Z,99744.87
2019-05-21T11:09:33.224Z,99734.41
2019-05-21T11:12:00.963Z,99738.95
2019-05-21T11:14:28.358Z,99744.22
2019-05-21T11:16:55.849Z,99739.20
2019-05-21T11:19:23.740Z,99758.05
2019-05-21T11:21:51.017Z,99759.83
2019-05-21T11:24:18.591Z,99756.67
2019-05-21T11:26:47.159Z,99767.64
2019-05-21T11:29:14.597Z,99768.67
2019-05-21T11:31:55.909Z,99771.08
2019-05-21T11:34:10.915Z,99765.86
2019-05-21T11:36:38.240Z,99772.03
2019-05-21T11:39:08.190Z,99775.88
2019-05-21T11:41:35.945Z,99772.08
2019-05-21T11:44:03.446Z,99784.36
2019-05-21T11:46:30.901Z,99786.27
2019-05-21T11:48:58.446Z,99782.67
2019-05-21T11:51:25.804Z,99783.41
2019-05-21T11:53:53.207Z,99780.59
2019-05-21T11:56:20.620Z,99790.30
2019-05-21T11:58:47.877Z,99794.78
2019-05-21T12:01:15.386Z,99804.65
2019-05-21T12:03:42.872Z,99798.86
2019-05-21T12:06:10.385Z,99809.00
2019-05-21T12:08:37.751Z,99795.30
2019-05-21T12:11:05.247Z,99797.23
2019-05-21T12:13:32.611Z,99807.41
2019-05-21T12:15:59.895Z,99812.01
2019-05-21T12:18:27.208Z,99821.56
2019-05-21T12:20:54.581Z,99822.00
2019-05-21T12:23:22.055Z,99822.22
2019-05-21T12:25:49.355Z,99825.90
2019-05-21T12:28:17.505Z,99824.24
2019-05-21T12:30:44.938Z,99832.70
2019-05-21T12:33:12.325Z,99828.14
2019-05-21T12:35:39.729Z,99831.22
2019-05-21T12:38:07.016Z,99837.55
2019-05-21T12:40:34.329Z,99851.55
2019-05-21T12:43:01.699Z,99848.50
2019-05-21T12:45:28.856Z,99856.19
2019-05-21T12:47:56.144Z,99854.80
2019-05-21T12:50:24.357Z,99866.61
2019-05-21T12:52:53.082Z,99864.47
2019-05-21T12:55:20.476Z,99868.25
2019-05-21T12:57:47.627Z,99869.31
2019-05-21T13:00:16.154Z,99872.17
2019-05-21T13:02:43.413Z,99879.22
2019-05-21T13:05:11.822Z,99880.42
2019-05-21T13:07:39.372Z,99891.02
2019-05-21T13:10:07.557Z,99885.77
2019-05-21T13:12:35.060Z,99895.45
2019-05-21T13:15:02.386Z,99890.28
2019-05-21T13:17:29.765Z,99902.36
2019-05-21T13:19:57.331Z,99895.27
2019-05-21T13:22:24.718Z,99900.66
2019-05-21T13:24:52.130Z,99903.02
2019-05-21T13:27:19.458Z,99899.94
2019-05-21T13:29:46.880Z,99907.14
2019-05-21T13:32:14.427Z,99913.58
2019-05-21T13:34:41.594Z,99916.05
2019-05-21T13:37:09.088Z,99919.58
2019-05-21T13:39:48.941Z,99915.91
2019-05-21T13:42:06.137Z,99930.02
2019-05-21T13:44:33.611Z,99926.84
2019-05-21T13:47:01.202Z,99933.03
2019-05-21T13:49:28.586Z,99939.30
2019-05-21T13:51:55.969Z,99944.28
2019-05-21T13:54:23.251Z,99932.56
2019-05-21T13:56:50.743Z,99945.40
2019-05-21T13:59:18.372Z,99935.25
2019-05-21T14:01:45.922Z,99944.98
2019-05-21T14:04:14.740Z,99944.08
2019-05-21T14:06:42.223Z,99941.22
2019-05-21T14:09:10.014Z,99936.52
2019-05-21T14:11:37.998Z,99948.31
2019-05-21T14:14:05.570Z,99950.94
2019-05-21T14:16:34.842Z,99954.08
2019-05-21T14:19:04.208Z,99957.33
2019-05-21T14:21:31.695Z,99958.34
2019-05-21T14:23:59.602Z,99958.74
2019-05-21T14:26:27.010Z,99958.52
2019-05-21T14:28:54.325Z,99959.25
2019-05-21T14:31:21.497Z,99966.38
2019-05-21T14:33:48.682Z,99970.30
2019-05-21T14:36:16.112Z,99963.97
2019-05-21T14:38:43.608Z,99975.25
2019-05-21T14:41:10.989Z,99976.49
2019-05-21T14:43:38.514Z,99978.50
2019-05-21T14:46:06.173Z,99982.97
2019-05-21T14:48:33.597Z,99988.67
2019-05-21T14:51:00.786Z,99986.05
2019-05-21T14:53:28.005Z,99990.01
2019-05-21T14:55:55.530Z,99983.98
2019-05-21T14:58:22.935Z,99991.25
2019-05-21T15:00:50.459Z,99995.98
2019-05-21T15:03:25.444Z,99994.66
2019-05-21T15:05:47.633Z,100001.83
2019-05-21T15:08:14.905Z,100001.62
2019-05-21T15:10:48.485Z,100003.69
2019-05-21T15:13:11.913Z,100004.53
2019-05-21T15:15:39.257Z,100006.97
2019-05-21T15:18:06.642Z,100007.16
2019-05-21T15:21:02.807Z,100000.24
2019-05-21T15:23:30.328Z,100010.05
2019-05-21T15:25:57.574Z,100003.19
2019-05-21T15:28:24.857Z,100011.89
2019-05-21T15:30:52.300Z,100016.60
2019-05-21T15:33:19.592Z,100025.27
2019-05-21T15:35:46.891Z,100016.34
2019-05-21T15:38:14.296Z,100026.16
2019-05-21T15:40:44.811Z,100025.47
2019-05-21T15:43:12.477Z,100031.51
2019-05-21T15:45:39.721Z,100025.27
2019-05-21T15:48:10.033Z,100036.09
2019-05-21T15:50:37.817Z,100035.48
2019-05-21T15:53:05.311Z,100035.53
2019-05-21T15:55:35.981Z,100046.04
2019-05-21T15:58:05.509Z,100050.27
2019-05-21T16:00:34.469Z,100054.67
2019-05-21T16:03:02.377Z,100049.70
2019-05-21T16:05:36.199Z,100059.27
2019-05-21T16:08:06.162Z,100050.76
2019-05-21T16:10:33.511Z,100066.63
2019-05-21T16:13:01.131Z,100064.36
2019-05-21T16:15:28.646Z,100057.61
2019-05-21T16:17:56.605Z,100068.13
2019-05-21T16:20:24.553Z,100060.41
2019-05-21T16:22:54.605Z,100065.69
2019-05-21T16:25:25.281Z,100063.28
2019-05-21T16:27:56.786Z,100063.28
2019-05-21T16:30:26.879Z,100065.69
2019-05-21T16:32:54.504Z,100070.72
2019-05-21T16:35:22.906Z,100066.69
2019-05-21T16:37:51.127Z,100071.98
2019-05-21T16:40:18.631Z,100073.25
2019-05-21T16:42:46.137Z,100077.13
2019-05-21T16:45:16.263Z,100075.56
2019-05-21T16:47:46.417Z,100079.92
2019-05-21T16:50:14.434Z,100083.44
2019-05-21T16:52:42.530Z,100086.00
2019-05-21T16:55:26.753Z,100081.42
2019-05-21T16:57:56.310Z,100082.31
2019-05-21T17:00:26.044Z,100086.44
2019-05-21T17:02:53.948Z,100082.59
2019-05-21T17:05:21.141Z,100080.76
2019-05-21T17:07:48.604Z,100095.48
2019-05-21T17:10:18.429Z,100092.56
2019-05-21T17:12:46.225Z,100097.38
2019-05-21T17:15:13.873Z,100095.70
2019-05-21T17:17:41.153Z,100102.11
2019-05-21T17:20:09.519Z,100105.13
2019-05-21T17:22:37.030Z,100111.78
2019-05-21T17:25:06.153Z,100111.20
2019-05-21T17:27:33.567Z,100111.22
2019-05-21T17:30:00.909Z,100121.03
2019-05-21T17:32:28.284Z,100130.14
2019-05-21T17:34:55.649Z,100129.66
2019-05-21T17:37:23.255Z,100129.89
2019-05-21T17:39:53.085Z,100132.66
2019-05-21T17:42:25.624Z,100130.48
2019-05-21T17:44:54.346Z,100137.59
2019-05-21T17:47:26.354Z,100127.47
2019-05-21T17:49:53.968Z,100140.56
2019-05-21T17:52:22.507Z,100147.52
2019-05-21T17:54:56.813Z,100147.05
2019-05-21T17:57:27.679Z,100151.41
2019-05-21T17:59:57.930Z,100144.77
2019-05-21T18:02:30.431Z,100156.92
2019-05-21T18:05:00.473Z,100158.56
2019-05-21T18:07:28.579Z,100158.53
2019-05-21T18:09:57.004Z,100161.14
2019-05-21T18:12:32.426Z,100166.97
2019-05-21T18:15:00.578Z,100166.97
2019-05-21T18:17:30.244Z,100174.47
2019-05-21T18:19:59.246Z,100180.92
2019-05-21T18:22:31.685Z,100180.92
2019-05-21T18:25:02.551Z,100176.09
2019-05-21T18:27:30.121Z,100199.82
2019-05-21T18:29:57.762Z,100195.97
2019-05-21T18:32:25.775Z,100196.81
2019-05-21T18:34:53.372Z,100200.41
2019-05-21T18:37:21.795Z,100204.84
2019-05-21T18:39:49.632Z,100194.28
2019-05-21T18:42:22.072Z,100212.98
2019-05-21T18:44:46.755Z,100215.20
2019-05-21T18:47:14.865Z,100218.81
2019-05-21T18:49:42.643Z,100232.11
2019-05-21T18:52:10.588Z,100221.05
2019-05-21T18:54:38.531Z,100231.60
2019-05-21T18:57:08.979Z,100242.36
2019-05-21T18:59:36.965Z,100245.97
2019-05-21T19:02:09.995Z,100249.55
2019-05-21T19:04:37.253Z,100249.60
2019-05-21T19:07:04.983Z,100251.55
2019-05-21T19:09:32.375Z,100254.34
2019-05-21T19:12:00.111Z,100265.89
2019-05-21T19:14:27.393Z,100270.04
2019-05-21T19:16:55.478Z,100282.45
2019-05-21T19:19:23.067Z,100283.83
2019-05-21T19:21:50.787Z,100289.06
2019-05-21T19:24:18.865Z,100295.67
2019-05-21T19:26:46.418Z,100301.74
2019-05-21T19:29:13.979Z,100303.39
2019-05-21T19:31:44.301Z,100310.55
2019-05-21T19:34:13.641Z,100317.41
2019-05-21T19:36:42.497Z,100316.03
2019-05-21T19:39:10.380Z,100320.16
2019-05-21T19:41:38.270Z,100318.22
2019-05-21T19:44:05.898Z,100331.73
2019-05-21T19:46:33.368Z,100329.25
2019-05-21T19:49:00.933Z,100328.14
2019-05-21T19:51:28.422Z,100331.68
2019-05-21T19:53:56.171Z,100331.14
2019-05-21T19:56:23.883Z,100326.20
2019-05-21T19:58:51.345Z,100325.36
2019-05-21T20:01:19.380Z,100325.37
2019-05-21T20:03:47.979Z,100336.41
2019-05-21T20:06:16.131Z,100340.53
2019-05-21T20:08:46.702Z,100342.47
2019-05-21T20:11:15.525Z,100344.11
2019-05-21T20:13:43.386Z,100351.28
2019-05-21T20:16:11.263Z,100348.50
2019-05-21T20:18:39.243Z,100347.93
2019-05-21T20:21:08.137Z,100355.94
2019-05-21T20:23:35.985Z,100354.28
2019-05-21T20:26:05.388Z,100355.64
2019-05-21T20:28:32.897Z,100360.88
2019-05-21T20:31:00.285Z,100363.08
2019-05-21T20:33:40.976Z,100365.28
2019-05-21T20:36:10.142Z,100367.76
2019-05-21T20:38:41.655Z,100362.25
2019-05-21T20:41:10.373Z,100366.93
2019-05-21T20:43:38.433Z,100365.30
2019-05-21T20:46:07.600Z,100360.88
2019-05-21T20:48:36.710Z,100360.07
2019-05-21T20:51:06.857Z,100359.74
2019-05-21T20:53:34.603Z,100363.91
2019-05-21T20:56:07.171Z,100358.92
2019-05-21T20:58:38.274Z,100366.66
2019-05-21T21:01:10.443Z,100364.98
2019-05-21T21:03:41.393Z,100368.86
2019-05-21T21:06:13.940Z,100368.31
2019-05-21T21:08:43.353Z,100380.13
2019-05-21T21:11:14.834Z,100384.53
2019-05-21T21:13:42.249Z,100386.18
2019-05-21T21:16:10.571Z,100380.67
2019-05-21T21:18:42.013Z,100378.47
2019-05-21T21:21:09.690Z,100378.50
2019-05-21T21:23:44.058Z,100380.95
2019-05-21T21:26:21.855Z,100384.50
2019-05-21T21:28:56.922Z,100381.47
2019-05-21T21:31:28.545Z,100388.08
2019-05-21T21:33:56.588Z,100393.59
2019-05-21T21:36:24.223Z,100390.53
2019-05-21T21:39:01.905Z,100399.03
2019-05-21T21:41:29.979Z,100391.36
2019-05-21T21:43:58.991Z,100391.91
2019-05-21T21:46:34.033Z,100390.77
2019-05-21T21:49:04.049Z,100388.33
2019-05-21T21:51:31.767Z,100389.98
2019-05-21T21:54:02.225Z,100388.88
2019-05-21T21:56:29.563Z,100397.72
2019-05-21T21:58:57.332Z,100392.48
2019-05-21T22:01:51.467Z,100398.03
2019-05-21T22:04:24.509Z,100394.90
2019-05-21T22:06:53.868Z,100392.73
2019-05-21T22:09:30.452Z,100388.29
2019-05-21T22:11:59.222Z,100397.95
2019-05-21T22:14:29.209Z,100391.91
2019-05-21T22:16:57.962Z,100391.01
2019-05-21T22:19:28.170Z,100389.36
2019-05-21T22:21:58.626Z,100389.12
2019-05-21T22:24:27.930Z,100390.50
2019-05-21T22:26:58.967Z,100400.41
2019-05-21T22:29:29.234Z,100389.39
2019-05-21T22:32:01.505Z,100387.70
2019-05-21T22:34:29.368Z,100392.42
2019-05-21T22:36:57.217Z,100391.83
2019-05-21T22:39:29.970Z,100396.45
2019-05-21T22:42:11.001Z,100392.59
2019-05-21T22:44:38.306Z,100395.07
2019-05-21T22:47:06.799Z,100399.75
2019-05-21T22:49:34.314Z,100398.95
2019-05-21T22:52:01.882Z,100395.06
2019-05-21T22:54:29.350Z,100398.38
2019-05-21T22:56:56.617Z,100403.63
2019-05-21T22:59:23.874Z,100402.26
2019-05-21T23:01:53.973Z,100400.88
2019-05-21T23:04:21.873Z,100394.20
2019-05-21T23:06:50.046Z,100398.75
2019-05-21T23:09:17.778Z,100402.33
2019-05-21T23:11:45.292Z,100395.69
2019-05-21T23:14:13.203Z,100407.28
2019-05-21T23:16:40.570Z,100405.53
2019-05-21T23:19:10.287Z,100402.30
2019-05-21T23:21:51.164Z,100400.37
2019-05-21T23:24:20.923Z,100395.93
2019-05-21T23:26:49.027Z,100404.97
2019-05-21T23:29:16.769Z,100399.23
2019-05-21T23:31:45.326Z,100401.78
2019-05-21T23:34:15.843Z,100404.25
2019-05-21T23:36:45.252Z,100408.39
2019-05-21T23:39:20.353Z,100404.53
2019-05-21T23:41:48.840Z,100400.13
2019-05-21T23:44:16.920Z,100405.36
2019-05-21T23:46:44.604Z,100407.28
2019-05-21T23:49:12.173Z,100405.12
2019-05-21T23:51:39.859Z,100410.04
2019-05-21T23:54:07.165Z,100411.73
2019-05-21T23:56:35.249Z,100412.80
2019-05-21T23:59:02.798Z,100409.45
